首页
METAR-TAF:

METAR-TAF

机场 :

蘇瀑支線機場

蘇瀑, 南达科他州, 美国

纬度: 43-34-37N, 经度: 096-45-13W, 海拔: 435米

当前天气观测

该预报发布于1小时和1分钟前的23:56 UTC
风速6节,风向西北
温度 -1°C
湿度 80%
气压 1017 hPa
能見度: 16.1公里
少量云层高于6000英尺

METAR: KFSD 132356Z 31006KT 10SM FEW060 M01/M04 A3002 RMK AO2 SLP185 60000 T10111044 10044 21011 53021

时间: 18:57 (00:57 UTC)

预报

该预报发布于1小时和37分钟前的23:20 UTC
预报有效从14日的 00点(UTC)到 14日的 24点(UTC)
风速9节,风向北转西北
能見度: 10公里
散云层高于2000英尺
多云层高于6000英尺
从 14日的 0100点(UTC)
风速6节,风向北转西北
能見度: 10公里
天空无云
从 14日的 1000点(UTC)
风速4节,风向多变
能見度: 10公里
天空无云
从 14日的 1700点(UTC)
风速7节,风向西
能見度: 10公里
天空无云

TAF: KFSD 132320Z 1400/1424 33009KT P6SM SCT020 BKN060 FM140100 33006KT P6SM SKC FM141000 VRB04KT P6SM SKC FM141700 26007KT P6SM SKC

超过4000个机场的气象观测和天气预报(METAR&TAF报告)。

可查询的气象台以黄色和红色小点在地图上表示。

将鼠标移到小点上方,可查看气象台名称。

然后点击查看天气观测和预报。

如需切换地图:点击带黑十字的绿色按钮放大地图;点击带横线的绿色按钮缩小地图;或者点击绿色箭头查看邻近地区的地图。


METAR-TAF: